sensor_id;sensor_type;location;lat;lon;timestamp;temperature;humidity
48666;DHT22;34452;50.796;4.994;2022-09-28T00:00:08;10.00;99.90
48666;DHT22;34452;50.796;4.994;2022-09-28T00:02:33;10.00;99.90
48666;DHT22;34452;50.796;4.994;2022-09-28T00:05:00;10.10;99.90
48666;DHT22;34452;50.796;4.994;2022-09-28T00:07:27;10.00;99.90
48666;DHT22;34452;50.796;4.994;2022-09-28T00:09:53;10.00;99.90
48666;DHT22;34452;50.796;4.994;2022-09-28T00:12:19;10.10;99.90
48666;DHT22;34452;50.796;4.994;2022-09-28T00:14:46;10.00;99.90
48666;DHT22;34452;50.796;4.994;2022-09-28T00:17:12;10.00;99.90
48666;DHT22;34452;50.796;4.994;2022-09-28T00:19:38;10.10;99.90
48666;DHT22;34452;50.796;4.994;2022-09-28T00:22:05;10.00;99.90
48666;DHT22;34452;50.796;4.994;2022-09-28T00:24:31;10.00;99.90
48666;DHT22;34452;50.796;4.994;2022-09-28T00:26:57;10.00;99.90
48666;DHT22;34452;50.796;4.994;2022-09-28T00:29:34;10.00;99.90
48666;DHT22;34452;50.796;4.994;2022-09-28T00:32:10;10.00;99.90
48666;DHT22;34452;50.796;4.994;2022-09-28T00:34:42;10.00;99.90
48666;DHT22;34452;50.796;4.994;2022-09-28T00:37:13;10.00;99.90
48666;DHT22;34452;50.796;4.994;2022-09-28T00:39:39;9.90;99.90
48666;DHT22;34452;50.796;4.994;2022-09-28T00:42:12;9.90;99.90
48666;DHT22;34452;50.796;4.994;2022-09-28T00:44:58;9.90;99.90
48666;DHT22;34452;50.796;4.994;2022-09-28T00:47:53;9.80;99.90
48666;DHT22;34452;50.796;4.994;2022-09-28T00:50:25;9.70;99.90
48666;DHT22;34452;50.796;4.994;2022-09-28T00:55:23;9.70;99.90
48666;DHT22;34452;50.796;4.994;2022-09-28T00:57:53;9.70;99.90
48666;DHT22;34452;50.796;4.994;2022-09-28T01:00:20;9.80;99.90
48666;DHT22;34452;50.796;4.994;2022-09-28T01:02:46;9.70;99.90
48666;DHT22;34452;50.796;4.994;2022-09-28T01:05:13;9.80;99.90
48666;DHT22;34452;50.796;4.994;2022-09-28T01:07:39;9.80;99.90
48666;DHT22;34452;50.796;4.994;2022-09-28T01:10:05;9.70;99.90
48666;DHT22;34452;50.796;4.994;2022-09-28T01:12:31;9.70;99.90
48666;DHT22;34452;50.796;4.994;2022-09-28T01:14:58;9.70;99.90
48666;DHT22;34452;50.796;4.994;2022-09-28T01:17:34;9.60;99.90
48666;DHT22;34452;50.796;4.994;2022-09-28T01:20:05;9.60;99.90
48666;DHT22;34452;50.796;4.994;2022-09-28T01:27:56;9.60;99.90
48666;DHT22;34452;50.796;4.994;2022-09-28T01:30:24;9.60;99.90
48666;DHT22;34452;50.796;4.994;2022-09-28T01:33:09;9.70;99.90
48666;DHT22;34452;50.796;4.994;2022-09-28T01:38:11;9.70;99.90
48666;DHT22;34452;50.796;4.994;2022-09-28T01:40:39;9.70;99.90
48666;DHT22;34452;50.796;4.994;2022-09-28T01:43:12;9.80;99.90
48666;DHT22;34452;50.796;4.994;2022-09-28T01:46:03;9.80;99.90
48666;DHT22;34452;50.796;4.994;2022-09-28T01:48:40;9.80;99.90
48666;DHT22;34452;50.796;4.994;2022-09-28T01:51:15;9.80;99.90
48666;DHT22;34452;50.796;4.994;2022-09-28T01:53:47;9.80;99.90
48666;DHT22;34452;50.796;4.994;2022-09-28T01:56:25;9.80;99.90
48666;DHT22;34452;50.796;4.994;2022-09-28T01:58:59;9.80;99.90
48666;DHT22;34452;50.796;4.994;2022-09-28T02:01:40;9.80;99.90
48666;DHT22;34452;50.796;4.994;2022-09-28T02:04:18;9.80;99.90
48666;DHT22;34452;50.796;4.994;2022-09-28T02:06:46;9.80;99.90
48666;DHT22;34452;50.796;4.994;2022-09-28T02:09:20;9.80;99.90
48666;DHT22;34452;50.796;4.994;2022-09-28T02:11:53;9.80;99.90
48666;DHT22;34452;50.796;4.994;2022-09-28T02:14:20;9.70;99.90
48666;DHT22;34452;50.796;4.994;2022-09-28T02:16:48;9.70;99.90
48666;DHT22;34452;50.796;4.994;2022-09-28T02:19:22;9.70;99.90
48666;DHT22;34452;50.796;4.994;2022-09-28T02:25:29;9.60;99.90
48666;DHT22;34452;50.796;4.994;2022-09-28T02:28:00;9.60;99.90
48666;DHT22;34452;50.796;4.994;2022-09-28T02:30:29;9.50;99.90
48666;DHT22;34452;50.796;4.994;2022-09-28T02:33:01;9.50;99.90
48666;DHT22;34452;50.796;4.994;2022-09-28T02:35:28;9.40;99.90
48666;DHT22;34452;50.796;4.994;2022-09-28T02:37:54;9.40;99.90
48666;DHT22;34452;50.796;4.994;2022-09-28T02:40:28;9.40;99.90
48666;DHT22;34452;50.796;4.994;2022-09-28T02:45:48;9.50;99.90
48666;DHT22;34452;50.796;4.994;2022-09-28T02:51:37;9.40;99.90
48666;DHT22;34452;50.796;4.994;2022-09-28T03:00:06;9.40;99.90
48666;DHT22;34452;50.796;4.994;2022-09-28T03:05:54;9.30;99.90
48666;DHT22;34452;50.796;4.994;2022-09-28T03:11:09;9.40;99.90
48666;DHT22;34452;50.796;4.994;2022-09-28T03:13:37;9.40;99.90
48666;DHT22;34452;50.796;4.994;2022-09-28T03:16:13;9.40;99.90
48666;DHT22;34452;50.796;4.994;2022-09-28T03:18:39;9.40;99.90
48666;DHT22;34452;50.796;4.994;2022-09-28T03:21:05;9.40;99.90
48666;DHT22;34452;50.796;4.994;2022-09-28T03:23:31;9.40;99.90
48666;DHT22;34452;50.796;4.994;2022-09-28T03:25:57;9.30;99.90
48666;DHT22;34452;50.796;4.994;2022-09-28T03:28:22;9.40;99.90
48666;DHT22;34452;50.796;4.994;2022-09-28T03:30:49;9.40;99.90
48666;DHT22;34452;50.796;4.994;2022-09-28T03:33:14;9.30;99.90
48666;DHT22;34452;50.796;4.994;2022-09-28T03:35:40;9.30;99.90
48666;DHT22;34452;50.796;4.994;2022-09-28T03:38:06;9.20;99.90
48666;DHT22;34452;50.796;4.994;2022-09-28T03:40:31;9.10;99.90
48666;DHT22;34452;50.796;4.994;2022-09-28T03:42:59;9.10;99.90
48666;DHT22;34452;50.796;4.994;2022-09-28T03:45:25;9.10;99.90
48666;DHT22;34452;50.796;4.994;2022-09-28T03:47:50;9.10;99.90
48666;DHT22;34452;50.796;4.994;2022-09-28T03:50:16;9.10;99.90
48666;DHT22;34452;50.796;4.994;2022-09-28T03:52:42;9.10;99.90
48666;DHT22;34452;50.796;4.994;2022-09-28T03:55:08;9.10;99.90
48666;DHT22;34452;50.796;4.994;2022-09-28T03:57:34;9.10;99.90
48666;DHT22;34452;50.796;4.994;2022-09-28T04:00:00;9.10;99.90
48666;DHT22;34452;50.796;4.994;2022-09-28T04:02:25;9.10;99.90
48666;DHT22;34452;50.796;4.994;2022-09-28T04:04:51;9.10;99.90
48666;DHT22;34452;50.796;4.994;2022-09-28T04:07:17;9.10;99.90
48666;DHT22;34452;50.796;4.994;2022-09-28T04:09:42;9.00;99.90
48666;DHT22;34452;50.796;4.994;2022-09-28T04:12:08;9.00;99.90
48666;DHT22;34452;50.796;4.994;2022-09-28T04:14:34;8.90;99.90
48666;DHT22;34452;50.796;4.994;2022-09-28T04:16:59;8.90;99.90
48666;DHT22;34452;50.796;4.994;2022-09-28T04:19:26;8.90;99.90
48666;DHT22;34452;50.796;4.994;2022-09-28T04:21:51;8.80;99.90
48666;DHT22;34452;50.796;4.994;2022-09-28T04:24:17;8.80;99.90
48666;DHT22;34452;50.796;4.994;2022-09-28T04:26:44;8.80;99.90
48666;DHT22;34452;50.796;4.994;2022-09-28T04:29:10;8.90;99.90
48666;DHT22;34452;50.796;4.994;2022-09-28T04:31:50;8.90;99.90
48666;DHT22;34452;50.796;4.994;2022-09-28T04:34:18;8.90;99.90
48666;DHT22;34452;50.796;4.994;2022-09-28T04:36:45;8.90;99.90
48666;DHT22;34452;50.796;4.994;2022-09-28T04:39:14;8.90;99.90
48666;DHT22;34452;50.796;4.994;2022-09-28T04:41:41;8.80;99.90
48666;DHT22;34452;50.796;4.994;2022-09-28T04:44:07;8.80;99.90
48666;DHT22;34452;50.796;4.994;2022-09-28T04:46:33;8.80;99.90
48666;DHT22;34452;50.796;4.994;2022-09-28T04:48:58;8.80;99.90
48666;DHT22;34452;50.796;4.994;2022-09-28T04:51:24;8.90;99.90
48666;DHT22;34452;50.796;4.994;2022-09-28T04:53:50;8.90;99.90
48666;DHT22;34452;50.796;4.994;2022-09-28T04:56:17;9.00;99.90
48666;DHT22;34452;50.796;4.994;2022-09-28T04:58:43;9.00;99.90
48666;DHT22;34452;50.796;4.994;2022-09-28T05:01:14;9.00;99.90
48666;DHT22;34452;50.796;4.994;2022-09-28T05:03:40;9.00;99.90
48666;DHT22;34452;50.796;4.994;2022-09-28T05:06:07;9.00;99.90
48666;DHT22;34452;50.796;4.994;2022-09-28T05:08:33;9.00;99.90
48666;DHT22;34452;50.796;4.994;2022-09-28T05:11:05;9.00;99.90
48666;DHT22;34452;50.796;4.994;2022-09-28T05:13:38;9.00;99.90
48666;DHT22;34452;50.796;4.994;2022-09-28T05:16:07;9.00;99.90
48666;DHT22;34452;50.796;4.994;2022-09-28T05:18:33;8.90;99.90
48666;DHT22;34452;50.796;4.994;2022-09-28T05:20:59;8.90;99.90
48666;DHT22;34452;50.796;4.994;2022-09-28T05:23:26;8.90;99.90
48666;DHT22;34452;50.796;4.994;2022-09-28T05:25:52;8.80;99.90
48666;DHT22;34452;50.796;4.994;2022-09-28T05:28:26;8.80;99.90
48666;DHT22;34452;50.796;4.994;2022-09-28T05:30:52;8.70;99.90
48666;DHT22;34452;50.796;4.994;2022-09-28T05:33:18;8.70;99.90
48666;DHT22;34452;50.796;4.994;2022-09-28T05:35:43;8.60;99.90
48666;DHT22;34452;50.796;4.994;2022-09-28T05:38:09;8.50;99.90
48666;DHT22;34452;50.796;4.994;2022-09-28T05:40:35;8.50;99.90
48666;DHT22;34452;50.796;4.994;2022-09-28T05:43:01;8.50;99.90
48666;DHT22;34452;50.796;4.994;2022-09-28T05:45:28;8.50;99.90
48666;DHT22;34452;50.796;4.994;2022-09-28T05:47:54;8.50;99.90
48666;DHT22;34452;50.796;4.994;2022-09-28T05:50:19;8.50;99.90
48666;DHT22;34452;50.796;4.994;2022-09-28T05:52:45;8.50;99.90
48666;DHT22;34452;50.796;4.994;2022-09-28T05:55:11;8.40;99.90
48666;DHT22;34452;50.796;4.994;2022-09-28T05:57:37;8.40;99.90
48666;DHT22;34452;50.796;4.994;2022-09-28T06:00:04;8.40;99.90
48666;DHT22;34452;50.796;4.994;2022-09-28T06:02:33;8.40;99.90
48666;DHT22;34452;50.796;4.994;2022-09-28T06:04:59;8.40;99.90
48666;DHT22;34452;50.796;4.994;2022-09-28T06:07:24;8.40;99.90
48666;DHT22;34452;50.796;4.994;2022-09-28T06:09:50;8.40;99.90
48666;DHT22;34452;50.796;4.994;2022-09-28T06:12:16;8.50;99.90
48666;DHT22;34452;50.796;4.994;2022-09-28T06:14:41;8.40;99.90
48666;DHT22;34452;50.796;4.994;2022-09-28T06:17:07;8.40;99.90
48666;DHT22;34452;50.796;4.994;2022-09-28T06:19:33;8.50;99.90
48666;DHT22;34452;50.796;4.994;2022-09-28T06:21:58;8.50;99.90
48666;DHT22;34452;50.796;4.994;2022-09-28T06:24:24;8.60;99.90
48666;DHT22;34452;50.796;4.994;2022-09-28T06:26:50;8.60;99.90
48666;DHT22;34452;50.796;4.994;2022-09-28T06:29:15;8.60;99.90
48666;DHT22;34452;50.796;4.994;2022-09-28T06:31:42;8.60;99.90
48666;DHT22;34452;50.796;4.994;2022-09-28T06:34:09;8.70;99.90
48666;DHT22;34452;50.796;4.994;2022-09-28T06:36:35;8.70;99.90
48666;DHT22;34452;50.796;4.994;2022-09-28T06:39:01;8.70;99.90
48666;DHT22;34452;50.796;4.994;2022-09-28T06:41:27;8.80;99.90
48666;DHT22;34452;50.796;4.994;2022-09-28T06:43:52;8.80;99.90
48666;DHT22;34452;50.796;4.994;2022-09-28T06:46:18;8.80;99.90
48666;DHT22;34452;50.796;4.994;2022-09-28T06:48:45;8.80;99.90
48666;DHT22;34452;50.796;4.994;2022-09-28T06:51:11;8.90;99.90
48666;DHT22;34452;50.796;4.994;2022-09-28T06:53:36;8.90;99.90
48666;DHT22;34452;50.796;4.994;2022-09-28T06:56:02;9.00;99.90
48666;DHT22;34452;50.796;4.994;2022-09-28T06:58:29;9.00;99.90
48666;DHT22;34452;50.796;4.994;2022-09-28T07:00:56;9.10;99.90
48666;DHT22;34452;50.796;4.994;2022-09-28T07:03:25;9.10;99.90
48666;DHT22;34452;50.796;4.994;2022-09-28T07:05:53;9.10;99.90
48666;DHT22;34452;50.796;4.994;2022-09-28T07:08:22;9.20;99.90
48666;DHT22;34452;50.796;4.994;2022-09-28T07:10:52;9.20;99.90
48666;DHT22;34452;50.796;4.994;2022-09-28T07:13:22;9.20;99.90
48666;DHT22;34452;50.796;4.994;2022-09-28T07:15:56;9.20;99.90
48666;DHT22;34452;50.796;4.994;2022-09-28T07:18:22;9.30;99.90
48666;DHT22;34452;50.796;4.994;2022-09-28T07:20:48;9.40;99.90
48666;DHT22;34452;50.796;4.994;2022-09-28T07:23:14;9.50;99.90
48666;DHT22;34452;50.796;4.994;2022-09-28T07:25:40;9.50;99.90
48666;DHT22;34452;50.796;4.994;2022-09-28T07:28:10;9.60;99.90
48666;DHT22;34452;50.796;4.994;2022-09-28T07:30:36;9.60;99.90
48666;DHT22;34452;50.796;4.994;2022-09-28T07:33:04;9.70;99.90
48666;DHT22;34452;50.796;4.994;2022-09-28T07:35:30;9.70;99.90
48666;DHT22;34452;50.796;4.994;2022-09-28T07:38:00;9.70;99.90
48666;DHT22;34452;50.796;4.994;2022-09-28T07:40:27;9.80;99.90
48666;DHT22;34452;50.796;4.994;2022-09-28T07:43:12;9.80;99.90
48666;DHT22;34452;50.796;4.994;2022-09-28T07:45:39;9.90;99.90
48666;DHT22;34452;50.796;4.994;2022-09-28T07:48:04;9.90;99.90
48666;DHT22;34452;50.796;4.994;2022-09-28T07:50:31;9.90;99.90
48666;DHT22;34452;50.796;4.994;2022-09-28T07:52:57;10.00;99.90
48666;DHT22;34452;50.796;4.994;2022-09-28T07:55:23;10.00;99.90
48666;DHT22;34452;50.796;4.994;2022-09-28T07:57:56;10.00;99.90
48666;DHT22;34452;50.796;4.994;2022-09-28T08:00:26;10.10;99.90
48666;DHT22;34452;50.796;4.994;2022-09-28T08:02:51;10.10;99.90
48666;DHT22;34452;50.796;4.994;2022-09-28T08:05:17;10.10;99.90
48666;DHT22;34452;50.796;4.994;2022-09-28T08:07:43;10.20;99.90
48666;DHT22;34452;50.796;4.994;2022-09-28T08:10:09;10.20;99.90
48666;DHT22;34452;50.796;4.994;2022-09-28T08:12:35;10.30;99.90
48666;DHT22;34452;50.796;4.994;2022-09-28T08:15:00;10.40;99.90
48666;DHT22;34452;50.796;4.994;2022-09-28T08:17:26;10.50;99.90
48666;DHT22;34452;50.796;4.994;2022-09-28T08:19:52;10.50;99.90
48666;DHT22;34452;50.796;4.994;2022-09-28T08:22:36;10.60;99.90
48666;DHT22;34452;50.796;4.994;2022-09-28T08:25:03;10.60;99.90
48666;DHT22;34452;50.796;4.994;2022-09-28T08:27:29;10.70;99.90
48666;DHT22;34452;50.796;4.994;2022-09-28T08:29:55;10.70;99.90
48666;DHT22;34452;50.796;4.994;2022-09-28T08:32:20;10.70;99.90
48666;DHT22;34452;50.796;4.994;2022-09-28T08:34:46;10.80;99.90
48666;DHT22;34452;50.796;4.994;2022-09-28T08:37:12;10.90;99.90
48666;DHT22;34452;50.796;4.994;2022-09-28T08:39:37;10.90;99.90
48666;DHT22;34452;50.796;4.994;2022-09-28T08:42:15;10.90;99.90
48666;DHT22;34452;50.796;4.994;2022-09-28T08:44:52;11.00;99.90
48666;DHT22;34452;50.796;4.994;2022-09-28T08:47:32;11.10;99.90
48666;DHT22;34452;50.796;4.994;2022-09-28T08:50:21;11.20;99.90
48666;DHT22;34452;50.796;4.994;2022-09-28T08:52:53;11.30;99.90
48666;DHT22;34452;50.796;4.994;2022-09-28T08:55:30;11.30;99.90
48666;DHT22;34452;50.796;4.994;2022-09-28T08:58:01;11.40;99.90
48666;DHT22;34452;50.796;4.994;2022-09-28T09:00:48;11.50;99.90
48666;DHT22;34452;50.796;4.994;2022-09-28T09:03:21;11.60;99.90
48666;DHT22;34452;50.796;4.994;2022-09-28T09:05:58;11.70;99.90
48666;DHT22;34452;50.796;4.994;2022-09-28T09:20:04;12.20;99.90
48666;DHT22;34452;50.796;4.994;2022-09-28T09:24:53;12.40;99.90
48666;DHT22;34452;50.796;4.994;2022-09-28T09:30:04;12.50;99.90
48666;DHT22;34452;50.796;4.994;2022-09-28T09:44:11;12.90;99.90
48666;DHT22;34452;50.796;4.994;2022-09-28T09:46:55;13.00;99.90
48666;DHT22;34452;50.796;4.994;2022-09-28T09:49:47;13.00;99.90
48666;DHT22;34452;50.796;4.994;2022-09-28T09:52:25;13.10;99.90
48666;DHT22;34452;50.796;4.994;2022-09-28T09:55:19;13.20;99.90
48666;DHT22;34452;50.796;4.994;2022-09-28T09:58:06;13.20;99.90
48666;DHT22;34452;50.796;4.994;2022-09-28T10:00:37;13.20;99.90
48666;DHT22;34452;50.796;4.994;2022-09-28T10:03:03;13.20;99.90
48666;DHT22;34452;50.796;4.994;2022-09-28T10:05:30;13.30;99.90
48666;DHT22;34452;50.796;4.994;2022-09-28T10:08:13;13.40;99.90
48666;DHT22;34452;50.796;4.994;2022-09-28T10:10:53;13.60;99.90
48666;DHT22;34452;50.796;4.994;2022-09-28T10:13:20;13.70;99.90
48666;DHT22;34452;50.796;4.994;2022-09-28T10:15:46;13.80;99.90
48666;DHT22;34452;50.796;4.994;2022-09-28T10:18:14;14.00;99.90
48666;DHT22;34452;50.796;4.994;2022-09-28T10:20:42;13.90;99.90
48666;DHT22;34452;50.796;4.994;2022-09-28T10:23:19;14.00;99.90
48666;DHT22;34452;50.796;4.994;2022-09-28T10:25:49;13.90;99.90
48666;DHT22;34452;50.796;4.994;2022-09-28T10:28:21;13.80;99.90
48666;DHT22;34452;50.796;4.994;2022-09-28T10:30:50;14.10;99.90
48666;DHT22;34452;50.796;4.994;2022-09-28T10:33:32;14.40;99.90
48666;DHT22;34452;50.796;4.994;2022-09-28T10:36:00;14.50;99.90
48666;DHT22;34452;50.796;4.994;2022-09-28T10:38:33;14.60;99.90
48666;DHT22;34452;50.796;4.994;2022-09-28T10:41:00;14.50;99.90
48666;DHT22;34452;50.796;4.994;2022-09-28T10:43:37;14.20;99.90
48666;DHT22;34452;50.796;4.994;2022-09-28T10:46:13;14.20;99.90
48666;DHT22;34452;50.796;4.994;2022-09-28T10:51:10;14.40;99.90
48666;DHT22;34452;50.796;4.994;2022-09-28T10:53:37;14.20;99.90
48666;DHT22;34452;50.796;4.994;2022-09-28T10:56:05;14.10;99.90
48666;DHT22;34452;50.796;4.994;2022-09-28T10:58:40;13.90;99.90
48666;DHT22;34452;50.796;4.994;2022-09-28T11:01:15;13.80;99.90
48666;DHT22;34452;50.796;4.994;2022-09-28T11:04:01;13.70;99.90
48666;DHT22;34452;50.796;4.994;2022-09-28T11:06:34;13.50;99.90
48666;DHT22;34452;50.796;4.994;2022-09-28T11:09:04;13.30;99.90
48666;DHT22;34452;50.796;4.994;2022-09-28T11:11:39;13.40;99.90
48666;DHT22;34452;50.796;4.994;2022-09-28T11:14:22;13.70;99.90
48666;DHT22;34452;50.796;4.994;2022-09-28T11:19:41;14.10;99.90
48666;DHT22;34452;50.796;4.994;2022-09-28T11:28:03;14.60;99.90
48666;DHT22;34452;50.796;4.994;2022-09-28T11:30:51;14.40;99.90
48666;DHT22;34452;50.796;4.994;2022-09-28T11:33:37;14.20;99.90
48666;DHT22;34452;50.796;4.994;2022-09-28T11:43:59;13.70;99.90
48666;DHT22;34452;50.796;4.994;2022-09-28T11:51:49;13.80;99.90
48666;DHT22;34452;50.796;4.994;2022-09-28T11:54:20;14.00;99.90
48666;DHT22;34452;50.796;4.994;2022-09-28T11:56:48;14.20;99.90
48666;DHT22;34452;50.796;4.994;2022-09-28T11:59:44;14.50;99.90
48666;DHT22;34452;50.796;4.994;2022-09-28T12:02:24;14.50;99.90
48666;DHT22;34452;50.796;4.994;2022-09-28T12:04:56;14.30;99.90
48666;DHT22;34452;50.796;4.994;2022-09-28T12:07:33;14.00;99.90
48666;DHT22;34452;50.796;4.994;2022-09-28T12:16:01;13.80;99.90
48666;DHT22;34452;50.796;4.994;2022-09-28T12:18:43;13.70;99.90
48666;DHT22;34452;50.796;4.994;2022-09-28T12:24:17;13.60;99.90
48666;DHT22;34452;50.796;4.994;2022-09-28T12:26:57;13.50;99.90
48666;DHT22;34452;50.796;4.994;2022-09-28T12:29:36;13.30;99.90
48666;DHT22;34452;50.796;4.994;2022-09-28T12:32:28;13.00;99.90
48666;DHT22;34452;50.796;4.994;2022-09-28T12:34:55;12.70;99.90
48666;DHT22;34452;50.796;4.994;2022-09-28T12:40:10;12.50;99.90
48666;DHT22;34452;50.796;4.994;2022-09-28T12:48:35;12.30;99.90
48666;DHT22;34452;50.796;4.994;2022-09-28T12:57:09;12.30;99.90
48666;DHT22;34452;50.796;4.994;2022-09-28T13:00:19;12.30;99.90
48666;DHT22;34452;50.796;4.994;2022-09-28T13:03:12;12.30;99.90
48666;DHT22;34452;50.796;4.994;2022-09-28T13:08:48;12.50;99.90
48666;DHT22;34452;50.796;4.994;2022-09-28T13:17:20;12.90;99.90
48666;DHT22;34452;50.796;4.994;2022-09-28T13:22:43;13.20;99.90
48666;DHT22;34452;50.796;4.994;2022-09-28T13:25:18;13.30;99.90
48666;DHT22;34452;50.796;4.994;2022-09-28T13:28:02;13.40;99.90
48666;DHT22;34452;50.796;4.994;2022-09-28T13:30:29;13.50;99.90
48666;DHT22;34452;50.796;4.994;2022-09-28T13:32:58;13.60;99.90
48666;DHT22;34452;50.796;4.994;2022-09-28T13:35:26;13.70;99.90
48666;DHT22;34452;50.796;4.994;2022-09-28T13:43:33;14.10;99.90
48666;DHT22;34452;50.796;4.994;2022-09-28T13:46:09;14.10;99.90
48666;DHT22;34452;50.796;4.994;2022-09-28T13:54:54;13.70;99.90
48666;DHT22;34452;50.796;4.994;2022-09-28T13:57:39;13.60;99.90
48666;DHT22;34452;50.796;4.994;2022-09-28T14:00:15;13.50;99.90
48666;DHT22;34452;50.796;4.994;2022-09-28T14:02:55;13.40;99.90
48666;DHT22;34452;50.796;4.994;2022-09-28T14:05:45;13.30;99.90
48666;DHT22;34452;50.796;4.994;2022-09-28T14:12:02;13.20;99.90
48666;DHT22;34452;50.796;4.994;2022-09-28T14:16:31;13.00;99.90
48666;DHT22;34452;50.796;4.994;2022-09-28T14:19:08;12.90;99.90
48666;DHT22;34452;50.796;4.994;2022-09-28T14:24:43;12.70;99.90
48666;DHT22;34452;50.796;4.994;2022-09-28T14:30:03;12.50;99.90
48666;DHT22;34452;50.796;4.994;2022-09-28T14:32:34;12.60;99.90
48666;DHT22;34452;50.796;4.994;2022-09-28T14:35:04;12.80;99.90
48666;DHT22;34452;50.796;4.994;2022-09-28T14:37:32;13.10;99.90
48666;DHT22;34452;50.796;4.994;2022-09-28T14:40:18;13.30;99.90
48666;DHT22;34452;50.796;4.994;2022-09-28T14:56:21;14.00;99.90
48666;DHT22;34452;50.796;4.994;2022-09-28T14:58:52;13.90;99.90
48666;DHT22;34452;50.796;4.994;2022-09-28T15:01:20;13.90;99.90
48666;DHT22;34452;50.796;4.994;2022-09-28T15:03:50;13.90;99.90
48666;DHT22;34452;50.796;4.994;2022-09-28T15:06:16;13.80;99.90
48666;DHT22;34452;50.796;4.994;2022-09-28T15:08:45;13.70;99.90
48666;DHT22;34452;50.796;4.994;2022-09-28T15:11:19;13.70;99.90
48666;DHT22;34452;50.796;4.994;2022-09-28T15:13:45;13.50;99.90
48666;DHT22;34452;50.796;4.994;2022-09-28T15:16:16;13.40;99.90
48666;DHT22;34452;50.796;4.994;2022-09-28T15:21:29;13.30;99.90
48666;DHT22;34452;50.796;4.994;2022-09-28T15:23:56;13.20;99.90
48666;DHT22;34452;50.796;4.994;2022-09-28T15:26:28;13.10;99.90
48666;DHT22;34452;50.796;4.994;2022-09-28T15:28:55;13.10;99.90
48666;DHT22;34452;50.796;4.994;2022-09-28T15:31:23;13.10;99.90
48666;DHT22;34452;50.796;4.994;2022-09-28T15:33:50;13.10;99.90
48666;DHT22;34452;50.796;4.994;2022-09-28T15:36:40;13.00;99.90
48666;DHT22;34452;50.796;4.994;2022-09-28T15:39:16;12.80;99.90
48666;DHT22;34452;50.796;4.994;2022-09-28T15:41:44;12.70;99.90
48666;DHT22;34452;50.796;4.994;2022-09-28T15:47:13;12.40;99.90
48666;DHT22;34452;50.796;4.994;2022-09-28T15:57:48;12.30;99.90
48666;DHT22;34452;50.796;4.994;2022-09-28T16:00:26;12.20;99.90
48666;DHT22;34452;50.796;4.994;2022-09-28T16:05:33;12.20;99.90
48666;DHT22;34452;50.796;4.994;2022-09-28T16:08:02;12.40;99.90
48666;DHT22;34452;50.796;4.994;2022-09-28T16:10:31;12.40;99.90
48666;DHT22;34452;50.796;4.994;2022-09-28T16:13:08;12.60;99.90
48666;DHT22;34452;50.796;4.994;2022-09-28T16:15:37;13.10;99.90
48666;DHT22;34452;50.796;4.994;2022-09-28T16:20:38;13.40;99.90
48666;DHT22;34452;50.796;4.994;2022-09-28T16:25:36;13.00;99.90
48666;DHT22;34452;50.796;4.994;2022-09-28T16:28:04;12.90;99.90
48666;DHT22;34452;50.796;4.994;2022-09-28T16:30:32;12.80;99.90
48666;DHT22;34452;50.796;4.994;2022-09-28T16:33:28;12.60;99.90
48666;DHT22;34452;50.796;4.994;2022-09-28T16:35:54;12.50;99.90
48666;DHT22;34452;50.796;4.994;2022-09-28T16:38:20;12.40;99.90
48666;DHT22;34452;50.796;4.994;2022-09-28T16:40:50;12.30;99.90
48666;DHT22;34452;50.796;4.994;2022-09-28T16:43:27;12.20;99.90
48666;DHT22;34452;50.796;4.994;2022-09-28T16:45:59;12.00;99.90
48666;DHT22;34452;50.796;4.994;2022-09-28T16:48:29;11.90;99.90
48666;DHT22;34452;50.796;4.994;2022-09-28T16:50:57;11.80;99.90
48666;DHT22;34452;50.796;4.994;2022-09-28T16:53:23;11.80;99.90
48666;DHT22;34452;50.796;4.994;2022-09-28T16:56:07;11.70;99.90
48666;DHT22;34452;50.796;4.994;2022-09-28T16:58:33;11.70;99.90
48666;DHT22;34452;50.796;4.994;2022-09-28T17:01:01;11.70;99.90
48666;DHT22;34452;50.796;4.994;2022-09-28T17:03:27;11.70;99.90
48666;DHT22;34452;50.796;4.994;2022-09-28T17:05:53;11.70;99.90
48666;DHT22;34452;50.796;4.994;2022-09-28T17:08:22;11.70;99.90
48666;DHT22;34452;50.796;4.994;2022-09-28T17:10:56;11.70;99.90
48666;DHT22;34452;50.796;4.994;2022-09-28T17:13:25;11.70;99.90
48666;DHT22;34452;50.796;4.994;2022-09-28T17:16:13;11.60;99.90
48666;DHT22;34452;50.796;4.994;2022-09-28T17:18:40;11.60;99.90
48666;DHT22;34452;50.796;4.994;2022-09-28T17:21:13;11.50;99.90
48666;DHT22;34452;50.796;4.994;2022-09-28T17:23:48;11.40;99.90
48666;DHT22;34452;50.796;4.994;2022-09-28T17:26:29;11.30;99.90
48666;DHT22;34452;50.796;4.994;2022-09-28T17:28:59;11.30;99.90
48666;DHT22;34452;50.796;4.994;2022-09-28T17:31:31;11.30;99.90
48666;DHT22;34452;50.796;4.994;2022-09-28T17:33:56;11.30;99.90
48666;DHT22;34452;50.796;4.994;2022-09-28T17:36:22;11.20;99.90
48666;DHT22;34452;50.796;4.994;2022-09-28T17:38:49;11.20;99.90
48666;DHT22;34452;50.796;4.994;2022-09-28T17:41:18;11.30;99.90
48666;DHT22;34452;50.796;4.994;2022-09-28T17:43:44;11.30;99.90
48666;DHT22;34452;50.796;4.994;2022-09-28T17:46:30;11.30;99.90
48666;DHT22;34452;50.796;4.994;2022-09-28T17:48:58;11.30;99.90
48666;DHT22;34452;50.796;4.994;2022-09-28T17:51:29;11.40;99.90
48666;DHT22;34452;50.796;4.994;2022-09-28T17:53:57;11.40;99.90
48666;DHT22;34452;50.796;4.994;2022-09-28T17:56:24;11.40;99.90
48666;DHT22;34452;50.796;4.994;2022-09-28T17:58:49;11.40;99.90
48666;DHT22;34452;50.796;4.994;2022-09-28T18:01:16;11.50;99.90
48666;DHT22;34452;50.796;4.994;2022-09-28T18:03:42;11.50;99.90
48666;DHT22;34452;50.796;4.994;2022-09-28T18:06:16;11.50;99.90
48666;DHT22;34452;50.796;4.994;2022-09-28T18:08:44;11.50;99.90
48666;DHT22;34452;50.796;4.994;2022-09-28T18:11:10;11.50;99.90
48666;DHT22;34452;50.796;4.994;2022-09-28T18:13:37;11.40;99.90
48666;DHT22;34452;50.796;4.994;2022-09-28T18:16:03;11.30;99.90
48666;DHT22;34452;50.796;4.994;2022-09-28T18:18:29;11.20;99.90
48666;DHT22;34452;50.796;4.994;2022-09-28T18:20:59;11.20;99.90
48666;DHT22;34452;50.796;4.994;2022-09-28T18:23:25;11.20;99.90
48666;DHT22;34452;50.796;4.994;2022-09-28T18:25:50;11.20;99.90
48666;DHT22;34452;50.796;4.994;2022-09-28T18:28:16;11.10;99.90
48666;DHT22;34452;50.796;4.994;2022-09-28T18:30:43;11.10;99.90
48666;DHT22;34452;50.796;4.994;2022-09-28T18:33:11;11.10;99.90
48666;DHT22;34452;50.796;4.994;2022-09-28T18:35:37;11.10;99.90
48666;DHT22;34452;50.796;4.994;2022-09-28T18:38:03;11.10;99.90
48666;DHT22;34452;50.796;4.994;2022-09-28T18:40:34;11.20;99.90
48666;DHT22;34452;50.796;4.994;2022-09-28T18:43:00;11.10;99.90
48666;DHT22;34452;50.796;4.994;2022-09-28T18:45:25;11.00;99.90
48666;DHT22;34452;50.796;4.994;2022-09-28T18:47:51;11.00;99.90
48666;DHT22;34452;50.796;4.994;2022-09-28T18:50:17;11.00;99.90
48666;DHT22;34452;50.796;4.994;2022-09-28T18:52:44;11.00;99.90
48666;DHT22;34452;50.796;4.994;2022-09-28T18:55:10;11.00;99.90